createdAt,value
2022-09-22T00:01:41.568Z,56.60
2022-09-22T00:04:13.428Z,56.60
2022-09-22T00:06:47.374Z,56.50
2022-09-22T00:09:18.870Z,56.60
2022-09-22T00:11:50.939Z,56.50
2022-09-22T00:14:23.693Z,56.60
2022-09-22T00:16:57.521Z,56.60
2022-09-22T00:19:29.455Z,56.50
2022-09-22T00:21:58.359Z,56.50
2022-09-22T00:24:28.766Z,56.50
2022-09-22T00:27:00.137Z,56.50
2022-09-22T00:29:30.625Z,56.50
2022-09-22T00:32:06.369Z,56.50
2022-09-22T00:34:36.076Z,56.40
2022-09-22T00:37:04.650Z,56.50
2022-09-22T00:39:33.251Z,56.40
2022-09-22T00:42:01.855Z,56.40
2022-09-22T00:44:40.845Z,56.40
2022-09-22T00:47:24.801Z,56.50
2022-09-22T00:50:00.663Z,56.40
2022-09-22T00:52:34.797Z,56.40
2022-09-22T00:55:08.536Z,56.50
2022-09-22T00:57:39.949Z,56.50
2022-09-22T01:00:12.077Z,56.50
2022-09-22T01:02:42.193Z,56.50
2022-09-22T01:05:11.244Z,56.50
2022-09-22T01:07:40.071Z,56.50
2022-09-22T01:10:09.902Z,56.50
2022-09-22T01:12:42.197Z,56.50
2022-09-22T01:15:24.298Z,57.10
2022-09-22T01:18:15.079Z,56.50
2022-09-22T01:21:15.395Z,56.60
2022-09-22T01:24:42.854Z,56.70
2022-09-22T01:27:48.531Z,56.70
2022-09-22T01:30:25.386Z,57.30
2022-09-22T01:33:22.077Z,56.60
2022-09-22T01:36:03.138Z,56.70
2022-09-22T01:38:38.015Z,56.70
2022-09-22T01:41:11.713Z,56.70
2022-09-22T01:43:48.611Z,56.70
2022-09-22T01:46:25.259Z,56.70
2022-09-22T01:48:55.276Z,56.80
2022-09-22T01:51:29.038Z,56.70
2022-09-22T01:54:02.538Z,56.70
2022-09-22T01:56:34.940Z,57.40
2022-09-22T01:59:08.175Z,56.70
2022-09-22T02:01:42.431Z,56.80
2022-09-22T02:04:17.233Z,56.80
2022-09-22T02:06:51.827Z,56.80
2022-09-22T02:09:23.250Z,56.90
2022-09-22T02:11:52.289Z,56.80
2022-09-22T02:14:20.815Z,56.80
2022-09-22T02:16:51.601Z,57.40
2022-09-22T02:19:24.752Z,56.70
2022-09-22T02:21:53.246Z,56.90
2022-09-22T02:24:30.192Z,56.80
2022-09-22T02:27:00.541Z,56.90
2022-09-22T02:29:32.696Z,56.70
2022-09-22T02:32:07.100Z,56.80
2022-09-22T02:34:35.889Z,56.80
2022-09-22T02:37:12.390Z,56.70
2022-09-22T02:39:46.483Z,56.80
2022-09-22T02:42:30.114Z,56.70
2022-09-22T02:45:07.830Z,56.80
2022-09-22T02:47:43.595Z,56.70
2022-09-22T02:50:15.651Z,56.70
2022-09-22T02:52:44.298Z,56.70
2022-09-22T02:55:14.910Z,56.70
2022-09-22T02:57:43.830Z,56.70
2022-09-22T03:00:13.693Z,56.70
2022-09-22T03:02:44.300Z,56.80
2022-09-22T03:05:12.924Z,56.70
2022-09-22T03:07:41.369Z,56.70
2022-09-22T03:10:11.644Z,56.70
2022-09-22T03:13:02.399Z,56.70
2022-09-22T03:15:31.264Z,56.70
2022-09-22T03:18:01.332Z,56.60
2022-09-22T03:20:30.089Z,56.70
2022-09-22T03:22:58.839Z,56.60
2022-09-22T03:25:27.670Z,56.60
2022-09-22T03:27:56.218Z,56.60
2022-09-22T03:30:25.040Z,56.60
2022-09-22T03:32:53.432Z,57.20
2022-09-22T03:35:23.382Z,56.60
2022-09-22T03:37:52.059Z,56.60
2022-09-22T03:40:22.116Z,56.50
2022-09-22T03:42:51.217Z,56.50
2022-09-22T03:45:19.866Z,56.50
2022-09-22T03:47:48.496Z,56.50
2022-09-22T03:50:17.262Z,56.60
2022-09-22T03:52:47.150Z,56.50
2022-09-22T03:55:15.807Z,56.50
2022-09-22T03:57:44.520Z,56.50
2022-09-22T04:00:15.692Z,56.60
2022-09-22T04:02:44.456Z,56.60
2022-09-22T04:05:13.069Z,56.70
2022-09-22T04:07:42.088Z,56.60
2022-09-22T04:10:12.037Z,56.60
2022-09-22T04:12:40.493Z,56.70
2022-09-22T04:15:10.390Z,56.70
2022-09-22T04:17:39.351Z,56.70
2022-09-22T04:20:11.431Z,56.70
2022-09-22T04:22:40.324Z,56.80
2022-09-22T04:25:12.168Z,56.70
2022-09-22T04:27:40.659Z,56.90
2022-09-22T04:30:11.617Z,56.80
2022-09-22T04:32:40.378Z,56.80
2022-09-22T04:35:10.084Z,56.80
2022-09-22T04:37:38.630Z,57.50
2022-09-22T04:40:08.446Z,56.90
2022-09-22T04:42:38.301Z,56.90
2022-09-22T04:45:08.469Z,56.90
2022-09-22T04:47:37.100Z,56.90
2022-09-22T04:50:07.116Z,56.90
2022-09-22T04:52:35.587Z,56.80
2022-09-22T04:55:04.187Z,56.80
2022-09-22T04:57:32.896Z,56.80
2022-09-22T05:00:03.835Z,56.80
2022-09-22T05:02:32.909Z,56.90
2022-09-22T05:05:01.712Z,56.80
2022-09-22T05:07:30.381Z,56.80
2022-09-22T05:10:02.723Z,56.80
2022-09-22T05:12:32.215Z,56.80
2022-09-22T05:15:03.246Z,56.80
2022-09-22T05:17:32.921Z,56.80
2022-09-22T05:20:01.352Z,56.80
2022-09-22T05:22:29.796Z,56.80
2022-09-22T05:24:58.437Z,56.80
2022-09-22T05:27:27.243Z,56.90
2022-09-22T05:29:55.700Z,56.80
2022-09-22T05:32:25.753Z,56.80
2022-09-22T05:34:54.311Z,56.80
2022-09-22T05:37:22.851Z,56.90
2022-09-22T05:39:51.318Z,56.80
2022-09-22T05:42:21.260Z,56.90
2022-09-22T05:44:49.807Z,56.90
2022-09-22T05:47:18.411Z,57.50
2022-09-22T05:49:48.430Z,56.90
2022-09-22T05:52:17.027Z,56.90
2022-09-22T05:54:45.619Z,56.90
2022-09-22T05:57:14.101Z,56.90
2022-09-22T05:59:42.540Z,56.90
2022-09-22T06:02:25.147Z,56.90
2022-09-22T06:04:56.250Z,57.00
2022-09-22T06:07:25.345Z,57.00
2022-09-22T06:09:53.975Z,57.10
2022-09-22T06:12:22.573Z,57.20
2022-09-22T06:14:51.144Z,57.20
2022-09-22T06:17:19.687Z,57.30
2022-09-22T06:19:50.443Z,57.30
2022-09-22T06:22:20.440Z,57.40
2022-09-22T06:24:49.218Z,57.40
2022-09-22T06:27:18.095Z,57.50
2022-09-22T06:29:46.639Z,57.50
2022-09-22T06:32:15.101Z,57.60
2022-09-22T06:34:54.708Z,57.70
2022-09-22T06:37:24.833Z,57.70
2022-09-22T06:39:53.403Z,57.70
2022-09-22T06:42:21.979Z,57.80
2022-09-22T06:44:50.735Z,57.90
2022-09-22T06:47:19.315Z,58.00
2022-09-22T06:49:47.775Z,58.00
2022-09-22T06:52:16.400Z,58.10
2022-09-22T06:54:46.342Z,58.10
2022-09-22T06:57:15.019Z,58.20
2022-09-22T06:59:44.622Z,58.30
2022-09-22T07:02:13.645Z,58.40
2022-09-22T07:04:42.195Z,58.40
2022-09-22T07:07:11.225Z,58.50
2022-09-22T07:09:39.892Z,58.60
2022-09-22T07:12:09.978Z,58.60
2022-09-22T07:14:39.629Z,58.60
2022-09-22T07:17:08.220Z,58.70
2022-09-22T07:19:36.892Z,58.70
2022-09-22T07:22:06.952Z,58.80
2022-09-22T07:24:35.407Z,58.90
2022-09-22T07:27:04.981Z,58.90
2022-09-22T07:29:34.933Z,58.90
2022-09-22T07:32:04.095Z,59.00
2022-09-22T07:34:32.839Z,59.10
2022-09-22T07:37:02.762Z,59.10
2022-09-22T07:39:31.326Z,59.20
2022-09-22T07:42:00.124Z,59.20
2022-09-22T07:44:46.106Z,59.40
2022-09-22T07:47:36.141Z,59.40
2022-09-22T07:50:05.433Z,59.40
2022-09-22T07:52:34.093Z,59.40
2022-09-22T07:55:02.688Z,59.50
2022-09-22T07:57:31.885Z,59.60
2022-09-22T08:00:00.462Z,59.60
2022-09-22T08:02:31.416Z,59.60
2022-09-22T08:05:01.530Z,59.70
2022-09-22T08:07:36.252Z,59.70
2022-09-22T08:10:06.127Z,59.80
2022-09-22T08:12:37.360Z,59.80
2022-09-22T08:15:07.383Z,59.80
2022-09-22T08:17:38.224Z,59.80
2022-09-22T08:20:09.275Z,59.70
2022-09-22T08:22:37.803Z,59.70
2022-09-22T08:25:07.460Z,59.70
2022-09-22T08:27:37.534Z,59.70
2022-09-22T08:30:07.619Z,59.70
2022-09-22T08:32:37.493Z,59.80
2022-09-22T08:35:09.095Z,59.70
2022-09-22T08:37:38.133Z,59.70
2022-09-22T08:40:10.003Z,59.70
2022-09-22T08:42:39.467Z,59.60
2022-09-22T08:45:26.230Z,59.60
2022-09-22T08:48:19.953Z,59.60
2022-09-22T08:51:09.278Z,59.50
2022-09-22T08:53:48.284Z,59.50
2022-09-22T08:56:26.142Z,59.50
2022-09-22T08:59:04.049Z,59.40
2022-09-22T09:01:56.376Z,59.50
2022-09-22T09:04:59.911Z,59.30
2022-09-22T09:07:43.287Z,59.30
2022-09-22T09:10:31.676Z,59.30
2022-09-22T09:13:19.731Z,59.20
2022-09-22T09:16:05.107Z,59.70
2022-09-22T09:18:37.454Z,59.00
2022-09-22T09:21:14.980Z,59.00
2022-09-22T09:26:38.190Z,58.80
2022-09-22T09:29:09.430Z,58.80
2022-09-22T09:31:44.649Z,58.70
2022-09-22T09:34:18.038Z,58.60
2022-09-22T09:36:55.385Z,58.60
2022-09-22T09:39:32.035Z,58.20
2022-09-22T09:42:02.640Z,58.20
2022-09-22T09:44:39.099Z,58.00
2022-09-22T09:47:19.537Z,57.60
2022-09-22T09:49:52.727Z,57.70
2022-09-22T09:52:25.742Z,57.70
2022-09-22T09:54:55.901Z,57.50
2022-09-22T09:57:28.183Z,57.50
2022-09-22T10:00:33.579Z,57.50
2022-09-22T10:03:17.489Z,56.70
2022-09-22T10:06:00.274Z,56.60
2022-09-22T10:08:35.210Z,56.80
2022-09-22T10:11:05.638Z,57.10
2022-09-22T10:13:37.666Z,56.90
2022-09-22T10:16:23.243Z,56.70
2022-09-22T10:19:04.734Z,56.30
2022-09-22T10:21:33.703Z,56.60
2022-09-22T10:24:32.565Z,56.30
2022-09-22T10:27:03.850Z,56.20
2022-09-22T10:29:36.011Z,55.90
2022-09-22T10:32:15.065Z,56.00
2022-09-22T10:34:46.984Z,55.80
2022-09-22T10:37:18.913Z,55.80
2022-09-22T10:39:52.526Z,55.60
2022-09-22T10:42:32.587Z,55.10
2022-09-22T10:45:05.733Z,55.80
2022-09-22T10:47:56.183Z,55.00
2022-09-22T10:50:57.315Z,54.70
2022-09-22T10:53:51.603Z,54.30
2022-09-22T10:56:31.214Z,54.30
2022-09-22T10:59:32.640Z,54.20
2022-09-22T11:02:35.681Z,54.00
2022-09-22T11:05:44.431Z,53.80
2022-09-22T11:08:32.867Z,54.10
2022-09-22T11:11:38.815Z,54.10
2022-09-22T11:14:31.696Z,54.10
2022-09-22T11:17:25.103Z,53.90
2022-09-22T11:20:16.684Z,53.30
2022-09-22T11:23:23.471Z,52.70
2022-09-22T11:26:16.352Z,52.90
2022-09-22T11:29:07.608Z,53.00
2022-09-22T11:31:48.573Z,53.00
2022-09-22T11:34:51.916Z,52.70
2022-09-22T11:37:42.068Z,52.50
2022-09-22T11:40:34.226Z,52.20
2022-09-22T11:43:25.154Z,52.40
2022-09-22T11:46:00.416Z,52.20
2022-09-22T11:48:48.381Z,52.90
2022-09-22T11:51:36.569Z,52.60
2022-09-22T11:54:20.109Z,52.30
2022-09-22T11:56:52.759Z,52.20
2022-09-22T11:59:39.417Z,52.50
2022-09-22T12:02:18.749Z,51.80
2022-09-22T12:04:55.585Z,51.70
2022-09-22T12:07:29.601Z,51.80
2022-09-22T12:10:02.291Z,51.80
2022-09-22T12:12:33.170Z,51.80
2022-09-22T12:15:09.428Z,51.60
2022-09-22T12:17:47.851Z,51.00
2022-09-22T12:20:36.221Z,51.10
2022-09-22T12:23:39.210Z,51.30
2022-09-22T12:26:10.909Z,50.80
2022-09-22T12:28:42.615Z,51.70
2022-09-22T12:31:14.583Z,51.30
2022-09-22T12:33:51.659Z,51.30
2022-09-22T12:36:31.313Z,50.80
2022-09-22T12:39:17.250Z,50.60
2022-09-22T12:41:49.313Z,50.50
2022-09-22T12:44:25.058Z,50.80
2022-09-22T12:47:01.278Z,50.70
2022-09-22T12:49:30.068Z,50.60
2022-09-22T12:52:00.565Z,50.50
2022-09-22T12:54:39.971Z,50.30
2022-09-22T12:57:45.894Z,50.30
2022-09-22T13:00:36.049Z,49.70
2022-09-22T13:03:47.934Z,50.10
2022-09-22T13:07:00.255Z,49.60
2022-09-22T13:09:31.823Z,49.60
2022-09-22T13:12:27.094Z,50.00
2022-09-22T13:15:18.322Z,49.20
2022-09-22T13:17:49.603Z,49.70
2022-09-22T13:20:25.230Z,50.40
2022-09-22T13:22:56.683Z,49.80
2022-09-22T13:25:30.120Z,49.60
2022-09-22T13:28:17.141Z,49.60
2022-09-22T13:30:47.997Z,48.90
2022-09-22T13:33:25.787Z,49.30
2022-09-22T13:36:03.291Z,49.10
2022-09-22T13:38:37.384Z,49.40
2022-09-22T13:41:12.094Z,49.00
2022-09-22T13:43:44.365Z,49.30
2022-09-22T13:46:24.173Z,49.00
2022-09-22T13:48:55.872Z,48.80
2022-09-22T13:51:26.287Z,49.20
2022-09-22T13:53:58.714Z,49.10
2022-09-22T13:56:27.937Z,48.60
2022-09-22T13:59:02.110Z,48.80
2022-09-22T14:01:32.117Z,48.70
2022-09-22T14:04:00.949Z,48.80
2022-09-22T14:06:34.007Z,48.60
2022-09-22T14:09:06.379Z,48.30
2022-09-22T14:11:37.083Z,48.30
2022-09-22T14:14:07.736Z,48.30
2022-09-22T14:16:47.047Z,48.30
2022-09-22T14:19:19.556Z,48.20
2022-09-22T14:21:52.040Z,48.10
2022-09-22T14:24:22.398Z,48.00
2022-09-22T14:26:52.844Z,47.70
2022-09-22T14:29:31.024Z,47.80
2022-09-22T14:32:12.758Z,47.70
2022-09-22T14:34:47.293Z,48.00
2022-09-22T14:37:23.892Z,47.40
2022-09-22T14:39:57.761Z,47.10
2022-09-22T14:42:29.496Z,47.10
2022-09-22T14:45:23.631Z,47.40
2022-09-22T14:48:23.507Z,47.10
2022-09-22T14:51:00.244Z,46.90
2022-09-22T14:53:34.075Z,47.20
2022-09-22T14:56:08.519Z,47.20
2022-09-22T14:58:42.056Z,47.00
2022-09-22T15:01:40.325Z,46.90
2022-09-22T15:04:18.875Z,46.60
2022-09-22T15:06:48.225Z,46.60
2022-09-22T15:09:29.072Z,47.00
2022-09-22T15:12:01.900Z,46.60
2022-09-22T15:14:44.406Z,46.60
2022-09-22T15:17:58.922Z,46.20
2022-09-22T15:20:34.923Z,46.30
2022-09-22T15:23:04.238Z,46.80
2022-09-22T15:25:32.954Z,46.70
2022-09-22T15:28:07.540Z,46.70
2022-09-22T15:30:36.121Z,46.70
2022-09-22T15:33:04.877Z,46.50
2022-09-22T15:35:37.392Z,46.40
2022-09-22T15:38:07.408Z,46.30
2022-09-22T15:40:36.387Z,46.40
2022-09-22T15:43:12.986Z,46.50
2022-09-22T15:45:48.629Z,46.50
2022-09-22T15:48:27.731Z,46.50
2022-09-22T15:50:57.488Z,46.30
2022-09-22T15:53:26.234Z,46.70
2022-09-22T15:55:55.860Z,46.70
2022-09-22T15:58:26.362Z,47.50
2022-09-22T16:00:55.160Z,46.90
2022-09-22T16:03:24.953Z,47.00
2022-09-22T16:05:57.332Z,46.90
2022-09-22T16:08:31.564Z,46.70
2022-09-22T16:11:05.279Z,46.90
2022-09-22T16:13:35.962Z,47.00
2022-09-22T16:16:04.881Z,47.10
2022-09-22T16:18:35.425Z,47.30
2022-09-22T16:21:05.838Z,47.30
2022-09-22T16:23:34.466Z,47.40
2022-09-22T16:26:03.128Z,47.30
2022-09-22T16:28:32.144Z,47.40
2022-09-22T16:31:05.864Z,47.70
2022-09-22T16:33:35.060Z,47.80
2022-09-22T16:36:04.634Z,47.80
2022-09-22T16:38:34.452Z,47.80
2022-09-22T16:41:04.400Z,48.10
2022-09-22T16:43:34.077Z,47.80
2022-09-22T16:46:21.654Z,48.00
2022-09-22T16:48:51.062Z,47.80
2022-09-22T16:51:20.457Z,47.90
2022-09-22T16:53:53.777Z,47.90
2022-09-22T16:56:24.864Z,48.10
2022-09-22T16:58:54.439Z,48.10
2022-09-22T17:01:25.813Z,48.30
2022-09-22T17:03:54.504Z,48.30
2022-09-22T17:06:25.575Z,48.40
2022-09-22T17:08:55.089Z,48.40
2022-09-22T17:11:29.622Z,48.60
2022-09-22T17:14:00.869Z,48.50
2022-09-22T17:16:33.709Z,48.60
2022-09-22T17:19:05.715Z,48.70
2022-09-22T17:21:36.711Z,48.90
2022-09-22T17:24:07.558Z,48.90
2022-09-22T17:26:40.736Z,48.90
2022-09-22T17:29:10.918Z,48.90
2022-09-22T17:31:41.066Z,48.90
2022-09-22T17:34:10.762Z,48.80
2022-09-22T17:36:39.607Z,48.90
2022-09-22T17:39:10.587Z,48.70
2022-09-22T17:41:46.780Z,48.70
2022-09-22T17:44:21.419Z,48.80
2022-09-22T17:47:10.424Z,48.80
2022-09-22T17:50:00.221Z,48.80
2022-09-22T17:52:46.771Z,48.70
2022-09-22T17:55:21.019Z,48.70
2022-09-22T17:57:50.443Z,48.70
2022-09-22T18:00:21.649Z,48.80
2022-09-22T18:02:55.112Z,48.80
2022-09-22T18:05:27.103Z,48.90
2022-09-22T18:07:57.791Z,48.90
2022-09-22T18:10:34.264Z,48.90
2022-09-22T18:13:04.426Z,49.00
2022-09-22T18:15:33.376Z,49.00
2022-09-22T18:18:03.370Z,49.10
2022-09-22T18:20:32.435Z,49.10
2022-09-22T18:23:02.433Z,49.20
2022-09-22T18:25:31.401Z,49.20
2022-09-22T18:28:01.038Z,49.30
2022-09-22T18:30:29.957Z,49.30
2022-09-22T18:32:58.906Z,49.30
2022-09-22T18:35:31.986Z,49.30
2022-09-22T18:38:04.518Z,49.30
2022-09-22T18:40:33.600Z,49.30
2022-09-22T18:43:05.349Z,49.20
2022-09-22T18:45:37.475Z,49.20
2022-09-22T18:48:07.277Z,49.20
2022-09-22T18:51:08.941Z,49.20
2022-09-22T18:54:35.335Z,49.40
2022-09-22T18:58:02.268Z,49.50
2022-09-22T19:00:54.038Z,49.60
2022-09-22T19:03:48.936Z,49.60
2022-09-22T19:07:22.134Z,49.60
2022-09-22T19:10:28.362Z,49.70
2022-09-22T19:27:15.102Z,49.90
2022-09-22T19:30:09.121Z,49.80
2022-09-22T19:32:43.224Z,50.00
2022-09-22T19:35:12.267Z,50.20
2022-09-22T19:37:41.589Z,50.20
2022-09-22T19:40:13.780Z,50.40
2022-09-22T19:42:46.571Z,50.40
2022-09-22T19:45:16.375Z,50.40
2022-09-22T19:47:46.414Z,50.50
2022-09-22T19:50:27.233Z,50.40
2022-09-22T19:52:56.181Z,50.40
2022-09-22T19:55:24.853Z,50.50
2022-09-22T19:57:55.723Z,50.40
2022-09-22T20:00:27.202Z,50.40
2022-09-22T20:02:59.574Z,50.40
2022-09-22T20:05:31.658Z,50.40
2022-09-22T20:08:01.408Z,50.40
2022-09-22T20:10:35.864Z,50.50
2022-09-22T20:13:27.003Z,50.50
2022-09-22T20:15:57.546Z,50.70
2022-09-22T20:18:26.955Z,50.60
2022-09-22T20:21:06.241Z,50.70
2022-09-22T20:23:37.478Z,50.70
2022-09-22T20:26:11.204Z,50.90
2022-09-22T20:28:48.027Z,50.80
2022-09-22T20:31:44.522Z,50.90
2022-09-22T20:39:16.058Z,50.80
2022-09-22T20:42:01.778Z,51.50
2022-09-22T20:51:22.384Z,51.00
2022-09-22T22:05:26.147Z,51.90
2022-09-22T22:08:52.209Z,51.90
2022-09-22T22:11:42.815Z,51.90
2022-09-22T22:14:20.542Z,51.90
2022-09-22T22:16:54.202Z,52.00
2022-09-22T22:21:12.014Z,52.00
2022-09-22T22:24:56.186Z,52.30
2022-09-22T22:28:26.439Z,52.20
2022-09-22T22:31:03.253Z,52.70
2022-09-22T22:33:49.410Z,52.00
2022-09-22T22:36:24.219Z,52.00
2022-09-22T22:38:56.409Z,52.10
2022-09-22T22:41:37.481Z,52.10
2022-09-22T22:45:26.502Z,52.10
2022-09-22T22:49:20.815Z,52.30
2022-09-22T22:52:03.231Z,52.30
2022-09-22T22:54:36.895Z,52.10
2022-09-22T22:57:14.687Z,52.10
2022-09-22T22:59:48.261Z,52.20
2022-09-22T23:02:17.993Z,52.30
2022-09-22T23:04:46.779Z,52.20
2022-09-22T23:07:17.713Z,52.30
2022-09-22T23:12:56.202Z,52.20
2022-09-22T23:15:27.327Z,52.20
2022-09-22T23:17:58.499Z,52.30
2022-09-22T23:20:31.240Z,52.20
2022-09-22T23:23:06.101Z,52.20
2022-09-22T23:26:42.723Z,52.10
2022-09-22T23:29:42.621Z,52.20
2022-09-22T23:32:13.816Z,52.20
2022-09-22T23:34:47.162Z,52.10
2022-09-22T23:37:29.938Z,52.10
2022-09-22T23:40:11.355Z,52.20
2022-09-22T23:42:52.444Z,52.20
2022-09-22T23:45:22.057Z,52.20
2022-09-22T23:47:51.919Z,52.20
2022-09-22T23:50:25.209Z,52.20
2022-09-22T23:52:56.849Z,52.30
2022-09-22T23:55:27.954Z,52.30
2022-09-22T23:57:57.412Z,52.40
